Time;durP1;ratioP1;P1;durP2;ratioP2;P2;SDS_P1;SDS_P2;PMS_P1;PMS_P2;Temp;Humidity;BMP_temperature;BMP_pressure;BME280_temperature;BME280_humidity;BME280_pressure;Samples;Min_cycle;Max_cycle;Signal;HPM_P1;HPM_P2
2022/01/09 00:03:29;;;;;;;;;;;;;;;4.19;100.00;97541.88;8197013;28;19989;-79
2022/01/09 00:07:31;;;;;;;;;;;;;;;4.23;100.00;97515.75;8183062;28;19934;-80
2022/01/09 00:11:33;;;;;;;;;;;;;;;4.21;100.00;97528.81;8194683;28;20284;-78
2022/01/09 00:15:34;;;;;;;;;;;;;;;4.24;100.00;97520.09;8200264;28;20513;-79
2022/01/09 00:19:36;;;;;;;;;;;;;;;4.32;100.00;97500.53;8184571;28;19977;-80
2022/01/09 00:23:37;;;;;;;;;;;;;;;4.34;100.00;97501.06;8206179;28;19926;-79
2022/01/09 00:27:38;;;;;;;;;;;;;;;4.32;100.00;97489.63;8193434;28;19926;-80
2022/01/09 00:31:40;;;;;;;;;;;;;;;4.31;100.00;97485.22;8161803;28;20347;-79
2022/01/09 00:35:41;;;;;;;;;;;;;;;4.31;100.00;97493.41;8194818;28;19977;-80
2022/01/09 00:39:43;;;;;;;;;;;;;;;4.19;100.00;97484.63;8198052;28;20550;-78
2022/01/09 00:43:44;;;;;;;;;;;;;;;4.20;100.00;97486.28;8170143;28;19931;-78
2022/01/09 00:47:46;;;;;;;;;;;;;;;4.14;100.00;97484.63;8172531;28;19923;-79
2022/01/09 00:51:47;;;;;;;;;;;;;;;4.18;100.00;97472.09;8188073;28;19926;-77
2022/01/09 00:55:49;;;;;;;;;;;;;;;4.08;100.00;97451.09;8202400;28;19930;-79
2022/01/09 00:59:50;;;;;;;;;;;;;;;4.10;100.00;97454.34;8203189;28;19930;-80
2022/01/09 01:03:51;;;;;;;;;;;;;;;4.16;100.00;97444.28;8173786;28;19926;-79
2022/01/09 01:07:53;;;;;;;;;;;;;;;4.20;100.00;97437.22;8170206;28;19965;-77
2022/01/09 01:11:54;;;;;;;;;;;;;;;4.17;100.00;97432.31;8186073;28;19926;-80
2022/01/09 01:15:57;;;;;;;;;;;;;;;4.16;100.00;97431.47;8198681;28;19960;-79
2022/01/09 01:19:58;;;;;;;;;;;;;;;4.17;100.00;97422.22;8188767;28;19953;-78
2022/01/09 01:24:02;;;;;;;;;;;;;;;4.22;100.00;97419.50;8190496;28;19923;-81
2022/01/09 01:28:03;;;;;;;;;;;;;;;4.21;100.00;97412.41;8177151;28;20026;-80
2022/01/09 01:32:05;;;;;;;;;;;;;;;4.22;100.00;97421.41;8186002;28;19934;-79
2022/01/09 01:36:07;;;;;;;;;;;;;;;4.21;100.00;97408.88;8169666;29;19926;-80
2022/01/09 01:40:10;;;;;;;;;;;;;;;4.24;100.00;97395.53;8182806;28;19922;-83
2022/01/09 01:44:12;;;;;;;;;;;;;;;4.27;100.00;97400.44;8197659;28;19929;-80
2022/01/09 01:48:14;;;;;;;;;;;;;;;4.25;100.00;97388.16;8188500;28;20183;-80
2022/01/09 01:52:21;;;;;;;;;;;;;;;4.32;100.00;97389.56;8185096;28;19926;-82
2022/01/09 01:56:23;;;;;;;;;;;;;;;4.28;100.00;97380.28;8189314;28;19922;-79
2022/01/09 02:00:24;;;;;;;;;;;;;;;4.34;100.00;97383.81;8189017;28;19982;-80
2022/01/09 02:04:26;;;;;;;;;;;;;;;4.32;100.00;97378.66;8192108;28;19997;-79
2022/01/09 02:08:27;;;;;;;;;;;;;;;4.38;100.00;97379.50;8193222;28;19981;-81
2022/01/09 02:12:29;;;;;;;;;;;;;;;4.34;100.00;97379.22;8189433;28;19922;-81
2022/01/09 02:16:31;;;;;;;;;;;;;;;4.33;100.00;97379.47;8168280;28;19926;-80
2022/01/09 02:20:33;;;;;;;;;;;;;;;4.36;100.00;97373.47;8176484;29;19981;-81
2022/01/09 02:24:34;;;;;;;;;;;;;;;4.37;100.00;97377.00;8184734;28;19926;-82
2022/01/09 02:28:36;;;;;;;;;;;;;;;4.30;100.00;97371.81;8204108;28;20351;-83
2022/01/09 02:32:38;;;;;;;;;;;;;;;4.34;100.00;97378.38;8179459;28;20363;-82
2022/01/09 02:36:39;;;;;;;;;;;;;;;4.31;100.00;97387.09;8190877;28;19923;-82
2022/01/09 02:40:42;;;;;;;;;;;;;;;4.35;100.00;97382.75;8182041;28;19933;-79
2022/01/09 02:44:43;;;;;;;;;;;;;;;4.37;100.00;97385.19;8193690;28;19928;-79
2022/01/09 02:48:46;;;;;;;;;;;;;;;4.31;100.00;97392.53;8189257;28;19930;-80
2022/01/09 02:52:50;;;;;;;;;;;;;;;4.36;100.00;97402.66;8186656;28;19974;-81
2022/01/09 02:56:52;;;;;;;;;;;;;;;4.41;100.00;97400.75;8177855;28;20304;-79
2022/01/09 03:00:53;;;;;;;;;;;;;;;4.43;100.00;97409.50;8188268;28;20357;-80
2022/01/09 03:04:55;;;;;;;;;;;;;;;4.38;100.00;97408.66;8185543;28;19955;-81
2022/01/09 03:09:00;;;;;;;;;;;;;;;4.37;100.00;97409.72;8196498;28;19927;-82
2022/01/09 03:13:03;;;;;;;;;;;;;;;4.38;100.00;97412.19;8175809;28;19977;-82
2022/01/09 03:17:05;;;;;;;;;;;;;;;4.37;100.00;97424.19;8185533;28;19985;-80
2022/01/09 03:21:06;;;;;;;;;;;;;;;4.39;100.00;97424.75;8189396;28;20304;-82
2022/01/09 03:25:08;;;;;;;;;;;;;;;4.39;100.00;97438.38;8175320;28;19922;-80
2022/01/09 03:29:10;;;;;;;;;;;;;;;4.42;100.00;97434.28;8182740;28;19927;-81
2022/01/09 03:33:11;;;;;;;;;;;;;;;4.38;100.00;97447.66;8195772;28;20415;-82
2022/01/09 03:37:13;;;;;;;;;;;;;;;4.44;100.00;97460.22;8186929;28;19974;-82
2022/01/09 03:41:19;;;;;;;;;;;;;;;4.44;100.00;97465.66;8180581;28;19933;-81
2022/01/09 03:45:21;;;;;;;;;;;;;;;4.48;100.00;97480.41;8188921;28;19923;-80
2022/01/09 03:49:23;;;;;;;;;;;;;;;4.49;100.00;97490.22;8184390;28;19922;-81
2022/01/09 03:53:24;;;;;;;;;;;;;;;4.49;100.00;97506.59;8181414;28;19950;-81
2022/01/09 03:57:26;;;;;;;;;;;;;;;4.48;100.00;97515.03;8181740;28;19922;-82
2022/01/09 04:01:28;;;;;;;;;;;;;;;4.51;100.00;97531.69;8193099;28;19953;-82
2022/01/09 04:05:29;;;;;;;;;;;;;;;4.46;100.00;97548.03;8181920;29;19977;-81
2022/01/09 04:09:39;;;;;;;;;;;;;;;4.43;100.00;97556.75;8196828;28;19980;-84
2022/01/09 04:13:40;;;;;;;;;;;;;;;4.38;100.00;97583.97;8190695;28;19923;-81
2022/01/09 04:21:46;;;;;;;;;;;;;;;4.31;100.00;97611.50;8190025;28;20032;-79
2022/01/09 04:25:48;;;;;;;;;;;;;;;4.28;100.00;97614.75;8194451;28;19922;-84
2022/01/09 04:29:49;;;;;;;;;;;;;;;4.22;100.00;97620.41;8189796;28;20376;-81
2022/01/09 04:33:50;;;;;;;;;;;;;;;4.18;100.00;97631.00;8191748;28;19926;-79
2022/01/09 04:37:53;;;;;;;;;;;;;;;4.18;100.00;97641.09;8192315;28;19926;-79
2022/01/09 04:41:55;;;;;;;;;;;;;;;4.14;100.00;97657.16;8172276;28;20702;-77
2022/01/09 04:45:57;;;;;;;;;;;;;;;4.18;100.00;97663.72;8188448;28;20175;-79
2022/01/09 04:49:59;;;;;;;;;;;;;;;4.17;100.00;97673.00;8191076;28;20331;-79
2022/01/09 04:54:00;;;;;;;;;;;;;;;4.16;100.00;97690.41;8200099;28;19927;-79
2022/01/09 04:58:02;;;;;;;;;;;;;;;4.16;100.00;97703.22;8174973;28;19934;-77
2022/01/09 05:02:04;;;;;;;;;;;;;;;4.06;100.00;97736.66;8196773;28;20372;-77
2022/01/09 05:06:05;;;;;;;;;;;;;;;4.16;100.00;97735.94;8197991;28;20351;-80
2022/01/09 05:10:08;;;;;;;;;;;;;;;4.02;100.00;97751.91;8182148;28;19922;-79
2022/01/09 05:14:10;;;;;;;;;;;;;;;4.02;100.00;97760.91;8163632;28;19978;-78
2022/01/09 05:18:14;;;;;;;;;;;;;;;4.00;100.00;97775.84;8181149;28;19961;-78
2022/01/09 05:22:17;;;;;;;;;;;;;;;3.94;100.00;97785.88;8186464;28;19922;-78
2022/01/09 05:26:18;;;;;;;;;;;;;;;3.84;100.00;97800.22;8196424;28;19926;-79
2022/01/09 05:30:19;;;;;;;;;;;;;;;3.89;100.00;97805.72;8187537;28;19982;-78
2022/01/09 05:34:21;;;;;;;;;;;;;;;3.84;100.00;97813.03;8184939;28;19922;-78
2022/01/09 05:38:22;;;;;;;;;;;;;;;3.80;100.00;97834.50;8179548;28;20392;-78
2022/01/09 05:42:24;;;;;;;;;;;;;;;3.69;100.00;97837.34;8180925;28;20343;-80
2022/01/09 05:46:25;;;;;;;;;;;;;;;3.69;100.00;97845.50;8183209;28;19967;-79
2022/01/09 05:50:27;;;;;;;;;;;;;;;3.73;100.00;97852.94;8192700;28;19930;-78
2022/01/09 05:54:28;;;;;;;;;;;;;;;3.64;100.00;97866.16;8176899;28;19926;-78
2022/01/09 05:58:30;;;;;;;;;;;;;;;3.69;100.00;97876.31;8189768;28;19927;-78
2022/01/09 06:02:31;;;;;;;;;;;;;;;3.66;100.00;97885.00;8193833;28;19981;-79
2022/01/09 06:06:32;;;;;;;;;;;;;;;3.63;100.00;97894.50;8179479;28;19933;-78
2022/01/09 06:10:34;;;;;;;;;;;;;;;3.69;100.00;97913.59;8195375;28;19930;-78
2022/01/09 06:14:35;;;;;;;;;;;;;;;3.62;100.00;97911.06;8189928;28;19933;-78
2022/01/09 06:18:37;;;;;;;;;;;;;;;3.69;100.00;97925.34;8192574;28;20343;-78
2022/01/09 06:22:38;;;;;;;;;;;;;;;3.61;100.00;97936.69;8203601;28;19922;-78
2022/01/09 06:26:40;;;;;;;;;;;;;;;3.61;100.00;97940.22;8173556;28;19926;-77
2022/01/09 06:30:42;;;;;;;;;;;;;;;3.63;100.00;97950.88;8204601;28;19926;-78
2022/01/09 06:34:44;;;;;;;;;;;;;;;3.58;100.00;97948.88;8185700;28;20307;-78
2022/01/09 06:38:46;;;;;;;;;;;;;;;3.68;100.00;97958.28;8191484;28;19926;-79
2022/01/09 06:42:47;;;;;;;;;;;;;;;3.68;100.00;97972.72;8175439;28;19922;-78
2022/01/09 06:46:49;;;;;;;;;;;;;;;3.65;100.00;97978.66;8180185;28;20072;-78
2022/01/09 06:50:50;;;;;;;;;;;;;;;3.75;100.00;97991.59;8163190;28;19931;-79
2022/01/09 06:54:52;;;;;;;;;;;;;;;3.80;100.00;97992.50;8196304;28;19927;-78
2022/01/09 06:58:53;;;;;;;;;;;;;;;3.89;100.00;98001.06;8175117;28;19980;-79
2022/01/09 07:02:55;;;;;;;;;;;;;;;3.95;100.00;98015.59;8204725;28;20150;-79
2022/01/09 07:06:56;;;;;;;;;;;;;;;4.00;100.00;98030.13;8195826;28;19922;-79
2022/01/09 07:10:57;;;;;;;;;;;;;;;3.99;100.00;98033.94;8196177;28;19926;-79
2022/01/09 07:14:59;;;;;;;;;;;;;;;3.99;100.00;98036.66;8196744;28;19934;-78
2022/01/09 07:19:00;;;;;;;;;;;;;;;4.04;100.00;98047.63;8196608;28;20017;-79
2022/01/09 07:23:02;;;;;;;;;;;;;;;4.09;100.00;98058.59;8201143;28;20415;-78
2022/01/09 07:27:03;;;;;;;;;;;;;;;4.08;100.00;98080.69;8190508;28;19924;-79
2022/01/09 07:31:05;;;;;;;;;;;;;;;4.08;100.00;98086.94;8198088;28;19977;-78
2022/01/09 07:35:07;;;;;;;;;;;;;;;4.12;100.00;98098.16;8208135;28;19922;-78
2022/01/09 07:39:09;;;;;;;;;;;;;;;4.12;100.00;98111.81;8184128;28;19923;-78
2022/01/09 07:43:10;;;;;;;;;;;;;;;4.21;100.00;98139.47;8204451;28;19923;-79
2022/01/09 07:47:11;;;;;;;;;;;;;;;4.26;100.00;98145.00;8195178;28;19981;-79
2022/01/09 07:51:13;;;;;;;;;;;;;;;4.25;100.00;98156.97;8198909;28;19929;-79
2022/01/09 07:55:19;;;;;;;;;;;;;;;4.32;100.00;98168.53;8209189;28;19981;-79
2022/01/09 07:59:20;;;;;;;;;;;;;;;4.27;100.00;98169.28;8182001;28;19949;-78
2022/01/09 08:03:22;;;;;;;;;;;;;;;4.31;100.00;98178.63;8195247;28;20364;-78
2022/01/09 08:07:23;;;;;;;;;;;;;;;4.36;100.00;98177.88;8184172;28;19923;-79
2022/01/09 08:11:26;;;;;;;;;;;;;;;4.28;100.00;98198.22;8204176;28;19937;-79
2022/01/09 08:15:28;;;;;;;;;;;;;;;4.30;100.00;98208.84;8194102;28;19926;-79
2022/01/09 08:19:31;;;;;;;;;;;;;;;4.34;100.00;98207.28;8181096;28;19977;-79
2022/01/09 08:23:34;;;;;;;;;;;;;;;4.34;100.00;98218.19;8201374;28;19926;-78
2022/01/09 08:27:35;;;;;;;;;;;;;;;4.44;100.00;98212.09;8192946;28;19926;-79
2022/01/09 08:31:37;;;;;;;;;;;;;;;4.55;100.00;98236.53;8195236;28;19946;-78
2022/01/09 08:35:38;;;;;;;;;;;;;;;4.56;100.00;98243.66;8200713;28;19926;-77
2022/01/09 08:39:41;;;;;;;;;;;;;;;4.60;100.00;98254.06;8192465;28;20380;-78
2022/01/09 08:43:42;;;;;;;;;;;;;;;4.48;99.02;98256.88;8173775;28;19923;-79
2022/01/09 08:47:44;;;;;;;;;;;;;;;4.56;99.36;98264.66;8171626;28;19937;-78
2022/01/09 08:51:45;;;;;;;;;;;;;;;4.62;98.94;98268.28;8200988;28;19937;-78
2022/01/09 08:55:47;;;;;;;;;;;;;;;4.68;98.43;98279.03;8193543;28;19926;-79
2022/01/09 08:59:48;;;;;;;;;;;;;;;4.67;96.93;98268.34;8179988;28;20015;-78
2022/01/09 09:03:50;;;;;;;;;;;;;;;4.73;96.15;98272.81;8187649;28;19934;-79
2022/01/09 09:07:52;;;;;;;;;;;;;;;4.76;94.88;98291.44;8200302;28;19922;-79
2022/01/09 09:11:53;;;;;;;;;;;;;;;4.79;94.50;98290.94;8199004;28;19926;-79
2022/01/09 09:15:56;;;;;;;;;;;;;;;4.85;95.40;98292.66;8203749;28;19990;-79
2022/01/09 09:19:58;;;;;;;;;;;;;;;4.86;94.21;98309.84;8201414;28;19927;-78
2022/01/09 09:23:59;;;;;;;;;;;;;;;4.86;93.75;98313.41;8195696;28;19927;-78
2022/01/09 09:28:01;;;;;;;;;;;;;;;4.91;93.92;98321.69;8192113;28;19930;-79
2022/01/09 09:32:02;;;;;;;;;;;;;;;5.01;92.14;98327.28;8202198;28;19930;-79
2022/01/09 09:36:05;;;;;;;;;;;;;;;5.20;91.89;98336.00;8182420;28;19922;-79
2022/01/09 09:40:07;;;;;;;;;;;;;;;5.33;90.37;98345.78;8172775;28;19926;-79
2022/01/09 09:44:09;;;;;;;;;;;;;;;5.43;90.48;98345.09;8183933;28;19923;-80
2022/01/09 09:48:11;;;;;;;;;;;;;;;5.51;89.25;98352.03;8206269;28;19922;-80
2022/01/09 09:52:15;;;;;;;;;;;;;;;5.61;89.49;98360.34;8204487;28;19927;-79
2022/01/09 09:56:19;;;;;;;;;;;;;;;5.68;87.48;98369.19;8205259;28;19931;-79
2022/01/09 10:00:22;;;;;;;;;;;;;;;5.79;87.67;98370.97;8204200;28;20009;-79
2022/01/09 10:04:24;;;;;;;;;;;;;;;5.87;86.99;98376.00;8187236;28;19950;-81
2022/01/09 10:08:36;;;;;;;;;;;;;;;5.82;85.69;98377.84;8192351;28;19927;-79
2022/01/09 10:12:38;;;;;;;;;;;;;;;5.92;86.05;98394.38;8189195;28;19926;-79
2022/01/09 10:16:40;;;;;;;;;;;;;;;5.95;86.46;98404.84;8187643;28;19945;-79
2022/01/09 10:20:42;;;;;;;;;;;;;;;6.05;85.59;98401.41;8201961;28;19926;-80
2022/01/09 10:24:43;;;;;;;;;;;;;;;5.83;82.77;98413.13;8191257;28;19930;-79
2022/01/09 10:28:46;;;;;;;;;;;;;;;5.96;85.54;98409.22;8190984;28;20591;-80
2022/01/09 10:32:54;;;;;;;;;;;;;;;6.05;84.77;98418.63;8206304;28;19954;-78
2022/01/09 10:36:55;;;;;;;;;;;;;;;6.14;81.89;98419.84;8193761;28;19937;-80
2022/01/09 10:41:01;;;;;;;;;;;;;;;5.94;81.24;98428.59;8194337;28;19926;-80
2022/01/09 10:45:20;;;;;;;;;;;;;;;5.91;81.28;98434.53;8209079;28;19926;-79
2022/01/09 10:49:21;;;;;;;;;;;;;;;5.86;81.72;98429.03;8211912;28;20009;-79
2022/01/09 10:53:24;;;;;;;;;;;;;;;6.01;81.73;98435.78;8190389;28;20632;-79
2022/01/09 10:57:28;;;;;;;;;;;;;;;6.13;80.58;98431.06;8186230;28;19926;-80
2022/01/09 11:01:31;;;;;;;;;;;;;;;5.98;79.47;98436.31;8200350;28;19926;-80
2022/01/09 11:05:33;;;;;;;;;;;;;;;5.99;78.78;98444.25;8200750;28;19930;-79
2022/01/09 11:09:36;;;;;;;;;;;;;;;5.86;79.27;98448.16;8203894;28;19927;-79
2022/01/09 11:13:42;;;;;;;;;;;;;;;5.99;79.31;98446.19;8183575;28;19947;-80
2022/01/09 11:17:45;;;;;;;;;;;;;;;6.00;79.75;98442.34;8153052;28;20358;-79
2022/01/09 11:21:48;;;;;;;;;;;;;;;6.00;78.70;98453.28;8197769;28;20042;-79
2022/01/09 11:25:52;;;;;;;;;;;;;;;6.07;78.89;98448.47;8204605;28;19927;-79
2022/01/09 11:29:54;;;;;;;;;;;;;;;6.18;78.65;98449.41;8190049;28;19936;-80
2022/01/09 11:34:14;;;;;;;;;;;;;;;6.14;77.89;98449.91;8195240;28;19931;-79
2022/01/09 11:38:34;;;;;;;;;;;;;;;6.22;78.27;98445.09;8202205;28;19931;-80
2022/01/09 11:42:36;;;;;;;;;;;;;;;6.18;77.71;98455.72;8191307;28;20285;-79
2022/01/09 11:46:56;;;;;;;;;;;;;;;6.21;77.03;98454.38;8201038;28;19927;-79
2022/01/09 11:51:04;;;;;;;;;;;;;;;6.07;78.09;98443.00;8182435;28;19934;-80
2022/01/09 11:55:06;;;;;;;;;;;;;;;6.11;78.57;98455.91;8192343;28;19994;-80
2022/01/09 11:59:33;;;;;;;;;;;;;;;6.06;78.48;98453.09;8181522;28;19931;-79
2022/01/09 12:03:35;;;;;;;;;;;;;;;6.11;79.21;98455.91;8180826;28;19969;-79
2022/01/09 12:07:40;;;;;;;;;;;;;;;6.13;79.09;98461.13;8193737;28;20410;-80
2022/01/09 12:12:01;;;;;;;;;;;;;;;6.12;79.25;98462.19;8176301;28;19922;-78
2022/01/09 12:16:02;;;;;;;;;;;;;;;6.06;79.65;98469.50;8192931;28;19969;-79
2022/01/09 12:20:13;;;;;;;;;;;;;;;6.04;80.77;98470.84;8205699;28;19922;-79
2022/01/09 12:24:34;;;;;;;;;;;;;;;6.08;78.65;98477.47;8192061;28;19938;-79
2022/01/09 12:28:38;;;;;;;;;;;;;;;5.98;79.15;98471.84;8206193;28;19926;-80
2022/01/09 12:32:39;;;;;;;;;;;;;;;5.97;79.36;98470.19;8205058;28;19998;-79
2022/01/09 12:36:43;;;;;;;;;;;;;;;5.91;79.56;98461.88;8193680;28;19970;-79
2022/01/09 12:40:44;;;;;;;;;;;;;;;5.92;79.06;98463.56;8183852;28;19926;-79
2022/01/09 12:44:53;;;;;;;;;;;;;;;6.01;79.65;98465.88;8191642;28;19996;-79
2022/01/09 12:48:59;;;;;;;;;;;;;;;6.05;79.41;98461.56;8207665;28;19927;-79
2022/01/09 12:53:13;;;;;;;;;;;;;;;6.13;79.17;98461.13;8210253;28;20422;-78
2022/01/09 12:57:14;;;;;;;;;;;;;;;6.15;78.46;98472.63;8195717;28;19922;-78
2022/01/09 13:01:20;;;;;;;;;;;;;;;6.26;78.28;98468.13;8203808;28;20342;-78
2022/01/09 13:05:23;;;;;;;;;;;;;;;6.19;78.09;98468.31;8207068;28;20017;-79
2022/01/09 13:09:26;;;;;;;;;;;;;;;6.30;77.70;98469.25;8181830;28;19926;-79
2022/01/09 13:13:30;;;;;;;;;;;;;;;6.36;77.15;98469.06;8191845;28;20056;-79
2022/01/09 13:17:44;;;;;;;;;;;;;;;6.57;78.09;98472.88;8187679;28;20021;-79
2022/01/09 13:21:50;;;;;;;;;;;;;;;6.63;75.83;98484.69;8214547;28;19977;-82
2022/01/09 13:25:52;;;;;;;;;;;;;;;6.64;73.11;98483.63;8195632;28;20009;-79
2022/01/09 13:29:57;;;;;;;;;;;;;;;6.78;74.63;98476.66;8200804;28;20343;-78
2022/01/09 13:34:04;;;;;;;;;;;;;;;6.88;75.58;98486.06;8196731;28;20560;-79
2022/01/09 13:38:07;;;;;;;;;;;;;;;6.86;74.57;98483.56;8197610;28;20007;-80
2022/01/09 13:42:09;;;;;;;;;;;;;;;6.90;75.87;98490.22;8195625;28;19927;-79
2022/01/09 13:46:11;;;;;;;;;;;;;;;6.82;76.32;98493.41;8171957;28;20338;-80
2022/01/09 13:50:15;;;;;;;;;;;;;;;6.83;73.69;98493.13;8189485;28;19949;-78
2022/01/09 13:54:20;;;;;;;;;;;;;;;6.65;72.31;98490.75;8202353;28;19933;-79
2022/01/09 13:58:22;;;;;;;;;;;;;;;6.54;72.80;98502.66;8189626;28;19990;-79
2022/01/09 14:02:24;;;;;;;;;;;;;;;6.50;70.38;98509.72;8191997;28;19945;-80
2022/01/09 14:06:26;;;;;;;;;;;;;;;6.50;70.99;98512.47;8185753;28;19926;-79
2022/01/09 14:10:33;;;;;;;;;;;;;;;6.43;71.56;98518.13;8183075;28;19926;-79
2022/01/09 14:14:36;;;;;;;;;;;;;;;6.36;71.12;98512.00;8190784;28;20047;-82
2022/01/09 14:18:38;;;;;;;;;;;;;;;6.32;71.84;98522.63;8193851;28;19926;-79
2022/01/09 14:22:47;;;;;;;;;;;;;;;6.33;71.22;98528.94;8186215;28;19962;-82
2022/01/09 14:26:56;;;;;;;;;;;;;;;6.40;71.97;98524.13;8168704;28;19922;-79
2022/01/09 14:31:03;;;;;;;;;;;;;;;6.40;71.78;98529.59;8185488;28;19926;-79
2022/01/09 14:35:05;;;;;;;;;;;;;;;6.39;72.11;98528.78;8192139;28;19982;-80
2022/01/09 14:39:09;;;;;;;;;;;;;;;6.34;72.64;98536.91;8191514;28;19958;-79
2022/01/09 14:43:10;;;;;;;;;;;;;;;6.36;72.45;98540.19;8195284;28;19946;-80
2022/01/09 14:47:12;;;;;;;;;;;;;;;6.21;72.74;98542.72;8171805;28;19926;-80
2022/01/09 14:51:14;;;;;;;;;;;;;;;6.18;73.06;98554.19;8186810;28;20541;-80
2022/01/09 14:55:15;;;;;;;;;;;;;;;6.10;73.35;98560.09;8182996;28;19985;-78
2022/01/09 14:59:17;;;;;;;;;;;;;;;6.07;73.50;98579.75;8181851;28;19930;-79
2022/01/09 15:03:19;;;;;;;;;;;;;;;5.96;74.12;98580.66;8191232;28;19922;-79
2022/01/09 15:07:20;;;;;;;;;;;;;;;5.94;74.27;98584.44;8191403;28;19949;-80
2022/01/09 15:11:22;;;;;;;;;;;;;;;5.93;73.39;98584.72;8165942;28;20368;-78
2022/01/09 15:15:24;;;;;;;;;;;;;;;5.83;73.84;98595.44;8178770;28;20369;-78
2022/01/09 15:19:25;;;;;;;;;;;;;;;5.80;75.02;98598.69;8199797;28;19926;-80
2022/01/09 15:23:27;;;;;;;;;;;;;;;5.77;75.68;98613.69;8193418;28;19930;-80
2022/01/09 15:27:30;;;;;;;;;;;;;;;5.74;75.43;98619.66;8188266;28;20371;-80
2022/01/09 15:31:32;;;;;;;;;;;;;;;5.69;75.38;98616.84;8204720;28;19950;-79
2022/01/09 15:35:33;;;;;;;;;;;;;;;5.63;76.27;98624.09;8190990;28;20015;-81
2022/01/09 15:39:35;;;;;;;;;;;;;;;5.62;76.27;98627.94;8185404;28;20387;-79
2022/01/09 15:43:36;;;;;;;;;;;;;;;5.56;76.17;98634.38;8181586;28;19958;-80
2022/01/09 15:47:43;;;;;;;;;;;;;;;5.48;75.74;98642.97;8209265;28;19923;-80
2022/01/09 15:51:45;;;;;;;;;;;;;;;5.43;75.74;98640.97;8201500;28;19949;-79
2022/01/09 15:55:46;;;;;;;;;;;;;;;5.37;75.91;98654.78;8199224;28;20015;-79
2022/01/09 15:59:47;;;;;;;;;;;;;;;5.39;74.94;98655.38;8195653;28;19992;-79
2022/01/09 16:03:49;;;;;;;;;;;;;;;5.31;75.19;98664.78;8195767;28;20376;-79
2022/01/09 16:07:51;;;;;;;;;;;;;;;5.28;75.50;98670.72;8195079;28;19922;-79
2022/01/09 16:11:57;;;;;;;;;;;;;;;5.23;75.97;98684.25;8199009;28;20335;-79
2022/01/09 16:15:59;;;;;;;;;;;;;;;5.20;75.96;98687.47;8186100;28;19922;-80
2022/01/09 16:20:00;;;;;;;;;;;;;;;5.19;75.96;98689.38;8195843;28;19926;-81
2022/01/09 16:24:02;;;;;;;;;;;;;;;5.11;75.82;98697.13;8192456;28;20343;-80
2022/01/09 16:28:03;;;;;;;;;;;;;;;5.10;76.62;98711.88;8183759;28;19922;-80
2022/01/09 16:32:05;;;;;;;;;;;;;;;4.99;76.74;98721.72;8194212;28;19954;-80
2022/01/09 16:36:09;;;;;;;;;;;;;;;4.88;78.97;98726.16;8189588;28;19934;-80
2022/01/09 16:40:11;;;;;;;;;;;;;;;4.89;78.96;98725.06;8182927;28;19922;-81
2022/01/09 16:44:12;;;;;;;;;;;;;;;4.82;80.31;98726.25;8193989;28;19926;-81
2022/01/09 16:48:14;;;;;;;;;;;;;;;4.70;80.69;98727.13;8187353;28;20327;-81
2022/01/09 16:52:17;;;;;;;;;;;;;;;4.63;82.87;98720.94;8163184;28;19930;-81
2022/01/09 16:56:19;;;;;;;;;;;;;;;4.67;82.47;98730.34;8183874;28;20009;-81
2022/01/09 17:00:23;;;;;;;;;;;;;;;4.67;82.53;98726.75;8196892;28;19926;-80
2022/01/09 17:04:25;;;;;;;;;;;;;;;4.63;82.17;98728.31;8196353;28;19926;-80
2022/01/09 17:08:29;;;;;;;;;;;;;;;4.59;83.19;98733.41;8177059;28;19934;-80
2022/01/09 17:12:31;;;;;;;;;;;;;;;4.51;83.71;98736.47;8176660;29;20418;-83
2022/01/09 17:16:33;;;;;;;;;;;;;;;4.48;83.58;98748.69;8193814;28;19950;-82
2022/01/09 17:20:54;;;;;;;;;;;;;;;4.37;84.67;98752.22;8197228;28;19994;-80
2022/01/09 17:24:56;;;;;;;;;;;;;;;4.29;85.06;98752.59;8200115;28;19989;-80
2022/01/09 17:28:58;;;;;;;;;;;;;;;4.25;85.07;98759.56;8189306;28;19930;-81
2022/01/09 17:32:59;;;;;;;;;;;;;;;4.21;85.85;98758.38;8201336;28;20360;-81
2022/01/09 17:37:00;;;;;;;;;;;;;;;4.12;85.95;98757.91;8195063;28;19926;-80
2022/01/09 17:41:02;;;;;;;;;;;;;;;4.05;86.26;98760.72;8201507;28;20086;-81
2022/01/09 17:45:04;;;;;;;;;;;;;;;4.02;86.94;98763.94;8186098;28;19970;-81
2022/01/09 17:49:09;;;;;;;;;;;;;;;4.00;87.88;98779.69;8201094;28;19926;-81
2022/01/09 17:53:10;;;;;;;;;;;;;;;4.06;87.88;98786.91;8198804;28;20300;-81
2022/01/09 17:57:12;;;;;;;;;;;;;;;4.14;87.34;98787.66;8196872;28;19949;-81
2022/01/09 18:01:14;;;;;;;;;;;;;;;4.06;87.68;98795.09;8187584;28;19929;-81
2022/01/09 18:05:18;;;;;;;;;;;;;;;4.02;88.28;98802.09;8170675;28;19976;-79
2022/01/09 18:09:20;;;;;;;;;;;;;;;3.97;89.13;98801.13;8193903;28;20722;-79
2022/01/09 18:13:21;;;;;;;;;;;;;;;3.97;89.38;98817.47;8196602;28;19923;-80
2022/01/09 18:17:25;;;;;;;;;;;;;;;3.99;89.20;98818.09;8189888;28;19989;-81
2022/01/09 18:21:27;;;;;;;;;;;;;;;4.06;89.51;98819.63;8194784;28;19985;-79
2022/01/09 18:25:29;;;;;;;;;;;;;;;4.12;88.95;98828.78;8187037;28;19926;-80
2022/01/09 18:29:30;;;;;;;;;;;;;;;4.10;89.11;98825.44;8186716;28;20395;-81
2022/01/09 18:33:32;;;;;;;;;;;;;;;4.03;89.60;98828.28;8195317;28;19990;-81
2022/01/09 18:37:34;;;;;;;;;;;;;;;4.00;90.19;98839.66;8188551;28;19926;-81
2022/01/09 18:41:37;;;;;;;;;;;;;;;4.02;90.11;98839.44;8194076;28;19926;-80
2022/01/09 18:45:38;;;;;;;;;;;;;;;4.01;89.96;98844.03;8184526;28;19931;-81
2022/01/09 18:49:40;;;;;;;;;;;;;;;4.02;90.10;98855.78;8178761;28;19926;-81
2022/01/09 18:53:43;;;;;;;;;;;;;;;3.99;90.01;98854.34;8195043;28;19922;-81
2022/01/09 18:57:45;;;;;;;;;;;;;;;3.97;90.24;98855.63;8201177;28;19926;-79
2022/01/09 19:01:46;;;;;;;;;;;;;;;3.99;90.68;98861.69;8174507;28;19926;-81
2022/01/09 19:05:48;;;;;;;;;;;;;;;3.98;90.78;98866.28;8186106;28;19922;-80
2022/01/09 19:09:50;;;;;;;;;;;;;;;3.95;90.85;98872.22;8188954;28;19965;-81
2022/01/09 19:13:53;;;;;;;;;;;;;;;3.96;91.10;98876.63;8197636;28;20264;-81
2022/01/09 19:17:55;;;;;;;;;;;;;;;3.94;91.05;98880.63;8197821;28;19981;-81
2022/01/09 19:21:59;;;;;;;;;;;;;;;3.88;91.39;98896.00;8188814;28;19934;-80
2022/01/09 19:26:00;;;;;;;;;;;;;;;3.88;91.36;98896.81;8190142;28;19934;-80
2022/01/09 19:30:03;;;;;;;;;;;;;;;3.87;90.83;98899.81;8189149;28;19926;-80
2022/01/09 19:34:05;;;;;;;;;;;;;;;3.83;91.55;98909.47;8199115;28;19926;-81
2022/01/09 19:38:08;;;;;;;;;;;;;;;3.80;91.79;98896.31;8202055;28;20311;-81
2022/01/09 19:42:09;;;;;;;;;;;;;;;3.80;92.48;98908.03;8199906;28;20299;-81
2022/01/09 19:46:11;;;;;;;;;;;;;;;3.73;91.17;98914.63;8187306;28;19923;-79
2022/01/09 19:50:13;;;;;;;;;;;;;;;3.75;91.96;98920.66;8196118;28;19922;-80
2022/01/09 19:54:15;;;;;;;;;;;;;;;3.78;92.11;98925.69;8183440;28;20009;-80
2022/01/09 19:58:18;;;;;;;;;;;;;;;3.83;92.73;98928.56;8168543;28;19934;-80
2022/01/09 20:02:21;;;;;;;;;;;;;;;3.82;91.57;98929.63;8173845;28;19922;-80
2022/01/09 20:06:24;;;;;;;;;;;;;;;3.77;92.25;98924.00;8200959;28;19926;-79
2022/01/09 20:10:28;;;;;;;;;;;;;;;3.77;92.39;98932.19;8187063;28;19961;-80
2022/01/09 20:14:30;;;;;;;;;;;;;;;3.65;92.37;98946.56;8194553;28;19922;-79
2022/01/09 20:18:31;;;;;;;;;;;;;;;3.53;91.78;98950.25;8198350;28;19980;-80
2022/01/09 20:22:34;;;;;;;;;;;;;;;3.39;93.04;98955.84;8178813;28;19969;-80
2022/01/09 20:26:36;;;;;;;;;;;;;;;3.33;93.61;98956.75;8191989;28;19926;-79
2022/01/09 20:30:37;;;;;;;;;;;;;;;3.31;93.64;98960.75;8189933;28;19973;-80
2022/01/09 20:34:39;;;;;;;;;;;;;;;3.19;93.53;98961.47;8171197;28;19926;-80
2022/01/09 20:38:41;;;;;;;;;;;;;;;3.04;94.42;98966.41;8199132;28;19929;-80
2022/01/09 20:42:42;;;;;;;;;;;;;;;2.92;94.45;98970.91;8203474;28;19922;-80
2022/01/09 20:46:45;;;;;;;;;;;;;;;2.79;95.18;98979.16;8188770;28;19969;-80
2022/01/09 20:50:46;;;;;;;;;;;;;;;2.67;95.64;98984.47;8189926;28;19965;-80
2022/01/09 20:54:48;;;;;;;;;;;;;;;2.54;95.40;98993.53;8189215;28;19922;-79
2022/01/09 20:58:49;;;;;;;;;;;;;;;2.42;96.20;99006.16;8200929;28;19989;-79
2022/01/09 21:02:50;;;;;;;;;;;;;;;2.30;96.21;99006.00;8194400;28;19973;-80
2022/01/09 21:06:52;;;;;;;;;;;;;;;2.17;97.79;99006.91;8171817;28;19978;-79
2022/01/09 21:10:53;;;;;;;;;;;;;;;2.15;98.45;99014.44;8186207;28;19997;-80
2022/01/09 21:14:55;;;;;;;;;;;;;;;2.13;98.28;99018.41;8194760;28;19980;-79
2022/01/09 21:18:56;;;;;;;;;;;;;;;2.08;98.63;99023.66;8187899;28;19922;-80